sensor_id;sensor_type;location;lat;lon;timestamp;pressure;altitude;pressure_sealevel;temperature;humidity
69153;BME280;56261;51.580;4.578;2024-01-30T00:02:15;102654.97;;;8.04;100.00
69153;BME280;56261;51.580;4.578;2024-01-30T00:04:41;102661.94;;;8.18;100.00
69153;BME280;56261;51.580;4.578;2024-01-30T00:07:06;102647.69;;;8.19;100.00
69153;BME280;56261;51.580;4.578;2024-01-30T00:09:32;102654.41;;;8.12;100.00
69153;BME280;56261;51.580;4.578;2024-01-30T00:11:57;102654.72;;;8.20;100.00
69153;BME280;56261;51.580;4.578;2024-01-30T00:14:22;102658.97;;;8.10;100.00
69153;BME280;56261;51.580;4.578;2024-01-30T00:16:48;102652.16;;;8.19;100.00
69153;BME280;56261;51.580;4.578;2024-01-30T00:19:14;102652.91;;;8.21;100.00
69153;BME280;56261;51.580;4.578;2024-01-30T00:21:39;102656.13;;;8.13;100.00
69153;BME280;56261;51.580;4.578;2024-01-30T00:24:04;102651.81;;;8.23;100.00
69153;BME280;56261;51.580;4.578;2024-01-30T00:26:30;102644.50;;;8.14;100.00
69153;BME280;56261;51.580;4.578;2024-01-30T00:28:55;102631.88;;;8.05;100.00
69153;BME280;56261;51.580;4.578;2024-01-30T00:31:21;102652.13;;;8.31;100.00
69153;BME280;56261;51.580;4.578;2024-01-30T00:33:46;102637.47;;;8.26;100.00
69153;BME280;56261;51.580;4.578;2024-01-30T00:36:11;102648.09;;;8.26;100.00
69153;BME280;56261;51.580;4.578;2024-01-30T00:38:37;102646.50;;;8.36;100.00
69153;BME280;56261;51.580;4.578;2024-01-30T00:41:03;102637.47;;;8.26;100.00
69153;BME280;56261;51.580;4.578;2024-01-30T00:43:28;102634.16;;;8.35;100.00
69153;BME280;56261;51.580;4.578;2024-01-30T00:45:54;102635.22;;;8.45;100.00
69153;BME280;56261;51.580;4.578;2024-01-30T00:48:20;102632.66;;;8.44;100.00
69153;BME280;56261;51.580;4.578;2024-01-30T00:50:45;102633.06;;;8.50;100.00
69153;BME280;56261;51.580;4.578;2024-01-30T00:53:11;102636.28;;;8.43;100.00
69153;BME280;56261;51.580;4.578;2024-01-30T00:55:36;102639.47;;;8.35;100.00
69153;BME280;56261;51.580;4.578;2024-01-30T00:58:02;102628.31;;;8.30;100.00
69153;BME280;56261;51.580;4.578;2024-01-30T01:00:28;102645.09;;;8.43;100.00
69153;BME280;56261;51.580;4.578;2024-01-30T01:02:57;102635.72;;;8.50;100.00
69153;BME280;56261;51.580;4.578;2024-01-30T01:05:22;102624.56;;;8.45;100.00
69153;BME280;56261;51.580;4.578;2024-01-30T01:07:48;102615.13;;;8.41;100.00
69153;BME280;56261;51.580;4.578;2024-01-30T01:10:14;102612.88;;;8.48;100.00
69153;BME280;56261;51.580;4.578;2024-01-30T01:12:41;102611.19;;;8.47;100.00
69153;BME280;56261;51.580;4.578;2024-01-30T01:15:07;102610.22;;;8.48;100.00
69153;BME280;56261;51.580;4.578;2024-01-30T01:17:35;102611.69;;;8.52;100.00
69153;BME280;56261;51.580;4.578;2024-01-30T01:20:01;102608.03;;;8.42;100.00
69153;BME280;56261;51.580;4.578;2024-01-30T01:22:26;102605.63;;;8.50;100.00
69153;BME280;56261;51.580;4.578;2024-01-30T01:24:52;102620.44;;;8.41;100.00
69153;BME280;56261;51.580;4.578;2024-01-30T01:27:18;102626.19;;;8.35;100.00
69153;BME280;56261;51.580;4.578;2024-01-30T01:29:43;102623.22;;;8.27;100.00
69153;BME280;56261;51.580;4.578;2024-01-30T01:32:08;102627.97;;;8.35;100.00
69153;BME280;56261;51.580;4.578;2024-01-30T01:34:34;102626.22;;;8.22;100.00
69153;BME280;56261;51.580;4.578;2024-01-30T01:36:59;102625.78;;;8.28;100.00
69153;BME280;56261;51.580;4.578;2024-01-30T01:39:25;102630.47;;;8.25;100.00
69153;BME280;56261;51.580;4.578;2024-01-30T01:41:51;102631.53;;;8.22;100.00
69153;BME280;56261;51.580;4.578;2024-01-30T01:44:17;102628.97;;;8.21;100.00
69153;BME280;56261;51.580;4.578;2024-01-30T01:46:43;102615.19;;;8.16;100.00
69153;BME280;56261;51.580;4.578;2024-01-30T01:49:09;102623.47;;;8.24;100.00
69153;BME280;56261;51.580;4.578;2024-01-30T01:51:36;102622.81;;;8.20;100.00
69153;BME280;56261;51.580;4.578;2024-01-30T01:54:04;102611.09;;;8.36;100.00
69153;BME280;56261;51.580;4.578;2024-01-30T01:56:31;102611.63;;;8.28;100.00
69153;BME280;56261;51.580;4.578;2024-01-30T01:59:00;102604.63;;;8.27;100.00
69153;BME280;56261;51.580;4.578;2024-01-30T02:01:26;102603.66;;;8.28;100.00
69153;BME280;56261;51.580;4.578;2024-01-30T02:03:52;102604.84;;;8.24;100.00
69153;BME280;56261;51.580;4.578;2024-01-30T02:06:18;102619.97;;;8.10;100.00
69153;BME280;56261;51.580;4.578;2024-01-30T02:08:44;102606.78;;;8.22;100.00
69153;BME280;56261;51.580;4.578;2024-01-30T02:11:10;102597.25;;;8.06;100.00
69153;BME280;56261;51.580;4.578;2024-01-30T02:13:36;102594.66;;;8.18;100.00
69153;BME280;56261;51.580;4.578;2024-01-30T02:16:02;102586.25;;;8.24;100.00
69153;BME280;56261;51.580;4.578;2024-01-30T02:18:27;102580.34;;;8.31;100.00
69153;BME280;56261;51.580;4.578;2024-01-30T02:20:54;102589.22;;;8.19;100.00
69153;BME280;56261;51.580;4.578;2024-01-30T02:23:23;102594.53;;;8.19;100.00
69153;BME280;56261;51.580;4.578;2024-01-30T02:25:49;102593.41;;;8.10;100.00
69153;BME280;56261;51.580;4.578;2024-01-30T02:28:15;102600.63;;;8.08;100.00
69153;BME280;56261;51.580;4.578;2024-01-30T02:30:42;102601.81;;;8.04;100.00
69153;BME280;56261;51.580;4.578;2024-01-30T02:33:08;102593.47;;;8.22;100.00
69153;BME280;56261;51.580;4.578;2024-01-30T02:35:34;102588.56;;;8.28;100.00
69153;BME280;56261;51.580;4.578;2024-01-30T02:37:59;102594.00;;;8.27;100.00
69153;BME280;56261;51.580;4.578;2024-01-30T02:40:25;102583.78;;;8.21;100.00
69153;BME280;56261;51.580;4.578;2024-01-30T02:42:50;102584.53;;;8.23;100.00
69153;BME280;56261;51.580;4.578;2024-01-30T02:45:16;102589.47;;;8.03;100.00
69153;BME280;56261;51.580;4.578;2024-01-30T02:47:41;102588.28;;;8.07;100.00
69153;BME280;56261;51.580;4.578;2024-01-30T02:50:07;102600.75;;;8.07;100.00
69153;BME280;56261;51.580;4.578;2024-01-30T02:52:32;102590.94;;;8.20;100.00
69153;BME280;56261;51.580;4.578;2024-01-30T02:54:58;102595.41;;;8.20;100.00
69153;BME280;56261;51.580;4.578;2024-01-30T02:57:23;102593.47;;;8.22;100.00
69153;BME280;56261;51.580;4.578;2024-01-30T02:59:49;102575.81;;;8.21;100.00
69153;BME280;56261;51.580;4.578;2024-01-30T03:02:14;102595.06;;;8.24;100.00
69153;BME280;56261;51.580;4.578;2024-01-30T03:04:43;102585.19;;;8.26;100.00
69153;BME280;56261;51.580;4.578;2024-01-30T03:07:08;102588.16;;;8.22;100.00
69153;BME280;56261;51.580;4.578;2024-01-30T03:09:34;102587.03;;;8.13;100.00
69153;BME280;56261;51.580;4.578;2024-01-30T03:11:59;102591.56;;;8.24;100.00
69153;BME280;56261;51.580;4.578;2024-01-30T03:14:25;102591.84;;;8.32;100.00
69153;BME280;56261;51.580;4.578;2024-01-30T03:16:50;102580.81;;;8.25;100.00
69153;BME280;56261;51.580;4.578;2024-01-30T03:19:15;102576.53;;;8.36;100.00
69153;BME280;56261;51.580;4.578;2024-01-30T03:21:41;102572.69;;;8.40;100.00
69153;BME280;56261;51.580;4.578;2024-01-30T03:24:06;102574.06;;;8.32;100.00
69153;BME280;56261;51.580;4.578;2024-01-30T03:26:32;102571.13;;;8.24;100.00
69153;BME280;56261;51.580;4.578;2024-01-30T03:28:57;102574.41;;;8.41;100.00
69153;BME280;56261;51.580;4.578;2024-01-30T03:31:22;102573.97;;;8.34;100.00
69153;BME280;56261;51.580;4.578;2024-01-30T03:33:48;102571.06;;;8.37;100.00
69153;BME280;56261;51.580;4.578;2024-01-30T03:36:15;102590.34;;;8.28;100.00
69153;BME280;56261;51.580;4.578;2024-01-30T03:38:40;102586.97;;;8.26;100.00
69153;BME280;56261;51.580;4.578;2024-01-30T03:41:08;102594.22;;;8.24;100.00
69153;BME280;56261;51.580;4.578;2024-01-30T03:43:34;102586.41;;;8.34;100.00
69153;BME280;56261;51.580;4.578;2024-01-30T03:46:01;102581.69;;;8.50;100.00
69153;BME280;56261;51.580;4.578;2024-01-30T03:48:26;102583.84;;;8.45;100.00
69153;BME280;56261;51.580;4.578;2024-01-30T03:50:52;102581.09;;;8.46;100.00
69153;BME280;56261;51.580;4.578;2024-01-30T03:53:17;102573.88;;;8.36;100.00
69153;BME280;56261;51.580;4.578;2024-01-30T03:55:43;102567.38;;;8.40;100.00
69153;BME280;56261;51.580;4.578;2024-01-30T03:58:08;102544.47;;;8.37;100.00
69153;BME280;56261;51.580;4.578;2024-01-30T04:00:33;102565.00;;;8.48;100.00
69153;BME280;56261;51.580;4.578;2024-01-30T04:02:59;102564.41;;;8.44;100.00
69153;BME280;56261;51.580;4.578;2024-01-30T04:05:24;102564.44;;;8.56;100.00
69153;BME280;56261;51.580;4.578;2024-01-30T04:07:49;102558.28;;;8.55;100.00
69153;BME280;56261;51.580;4.578;2024-01-30T04:10:15;102555.94;;;8.50;100.00
69153;BME280;56261;51.580;4.578;2024-01-30T04:12:40;102552.25;;;8.53;100.00
69153;BME280;56261;51.580;4.578;2024-01-30T04:15:06;102540.44;;;8.68;100.00
69153;BME280;56261;51.580;4.578;2024-01-30T04:17:31;102534.00;;;8.60;100.00
69153;BME280;56261;51.580;4.578;2024-01-30T04:19:57;102541.84;;;8.61;100.00
69153;BME280;56261;51.580;4.578;2024-01-30T04:22:23;102548.16;;;8.60;100.00
69153;BME280;56261;51.580;4.578;2024-01-30T04:24:48;102549.19;;;8.46;100.00
69153;BME280;56261;51.580;4.578;2024-01-30T04:27:13;102541.69;;;8.51;100.00
69153;BME280;56261;51.580;4.578;2024-01-30T04:29:39;102547.75;;;8.54;100.00
69153;BME280;56261;51.580;4.578;2024-01-30T04:32:04;102556.06;;;8.49;100.00
69153;BME280;56261;51.580;4.578;2024-01-30T04:34:30;102549.00;;;8.61;100.00
69153;BME280;56261;51.580;4.578;2024-01-30T04:36:55;102554.41;;;8.59;100.00
69153;BME280;56261;51.580;4.578;2024-01-30T04:39:21;102541.25;;;8.58;100.00
69153;BME280;56261;51.580;4.578;2024-01-30T04:41:47;102546.81;;;8.66;100.00
69153;BME280;56261;51.580;4.578;2024-01-30T04:44:13;102536.19;;;8.66;100.00
69153;BME280;56261;51.580;4.578;2024-01-30T04:46:38;102543.44;;;8.64;100.00
69153;BME280;56261;51.580;4.578;2024-01-30T04:49:04;102545.81;;;8.80;100.00
69153;BME280;56261;51.580;4.578;2024-01-30T04:51:29;102557.22;;;8.58;100.00
69153;BME280;56261;51.580;4.578;2024-01-30T04:53:55;102550.06;;;8.82;100.00
69153;BME280;56261;51.580;4.578;2024-01-30T04:56:20;102550.97;;;8.70;100.00
69153;BME280;56261;51.580;4.578;2024-01-30T04:58:45;102549.03;;;8.72;100.00
69153;BME280;56261;51.580;4.578;2024-01-30T05:01:15;102543.00;;;8.81;100.00
69153;BME280;56261;51.580;4.578;2024-01-30T05:03:41;102543.41;;;8.88;100.00
69153;BME280;56261;51.580;4.578;2024-01-30T05:06:06;102544.75;;;8.93;100.00
69153;BME280;56261;51.580;4.578;2024-01-30T05:08:32;102538.91;;;8.88;100.00
69153;BME280;56261;51.580;4.578;2024-01-30T05:11:00;102528.66;;;8.95;100.00
69153;BME280;56261;51.580;4.578;2024-01-30T05:13:25;102534.59;;;8.99;100.00
69153;BME280;56261;51.580;4.578;2024-01-30T05:15:51;102525.53;;;9.01;100.00
69153;BME280;56261;51.580;4.578;2024-01-30T05:18:16;102538.25;;;8.98;100.00
69153;BME280;56261;51.580;4.578;2024-01-30T05:20:41;102541.59;;;9.00;100.00
69153;BME280;56261;51.580;4.578;2024-01-30T05:23:07;102540.56;;;9.02;100.00
69153;BME280;56261;51.580;4.578;2024-01-30T05:25:33;102533.06;;;9.07;100.00
69153;BME280;56261;51.580;4.578;2024-01-30T05:27:58;102542.22;;;9.03;100.00
69153;BME280;56261;51.580;4.578;2024-01-30T05:30:23;102546.72;;;9.03;100.00
69153;BME280;56261;51.580;4.578;2024-01-30T05:32:49;102545.03;;;9.13;100.00
69153;BME280;56261;51.580;4.578;2024-01-30T05:35:14;102549.03;;;9.07;100.00
69153;BME280;56261;51.580;4.578;2024-01-30T05:37:40;102541.88;;;9.08;100.00
69153;BME280;56261;51.580;4.578;2024-01-30T05:40:06;102551.19;;;9.02;100.00
69153;BME280;56261;51.580;4.578;2024-01-30T05:42:31;102539.84;;;9.11;100.00
69153;BME280;56261;51.580;4.578;2024-01-30T05:44:57;102565.75;;;9.21;100.00
69153;BME280;56261;51.580;4.578;2024-01-30T05:47:25;102556.31;;;9.17;100.00
69153;BME280;56261;51.580;4.578;2024-01-30T05:49:51;102554.47;;;9.17;100.00
69153;BME280;56261;51.580;4.578;2024-01-30T05:52:16;102553.00;;;9.13;100.00
69153;BME280;56261;51.580;4.578;2024-01-30T05:54:42;102556.22;;;9.29;100.00
69153;BME280;56261;51.580;4.578;2024-01-30T05:57:08;102563.34;;;9.18;100.00
69153;BME280;56261;51.580;4.578;2024-01-30T05:59:33;102564.16;;;9.07;100.00
69153;BME280;56261;51.580;4.578;2024-01-30T06:01:58;102566.38;;;9.24;100.00
69153;BME280;56261;51.580;4.578;2024-01-30T06:04:24;102565.75;;;9.21;100.00
69153;BME280;56261;51.580;4.578;2024-01-30T06:06:49;102575.56;;;9.20;100.00
69153;BME280;56261;51.580;4.578;2024-01-30T06:09:14;102570.63;;;9.27;100.00
69153;BME280;56261;51.580;4.578;2024-01-30T06:11:40;102572.03;;;9.31;100.00
69153;BME280;56261;51.580;4.578;2024-01-30T06:14:05;102563.81;;;9.23;100.00
69153;BME280;56261;51.580;4.578;2024-01-30T06:16:30;102578.09;;;9.33;100.00
69153;BME280;56261;51.580;4.578;2024-01-30T06:18:56;102586.22;;;9.20;100.00
69153;BME280;56261;51.580;4.578;2024-01-30T06:21:23;102584.44;;;9.43;100.00
69153;BME280;56261;51.580;4.578;2024-01-30T06:23:48;102592.78;;;9.39;100.00
69153;BME280;56261;51.580;4.578;2024-01-30T06:26:14;102583.22;;;9.47;100.00
69153;BME280;56261;51.580;4.578;2024-01-30T06:28:39;102585.25;;;9.44;100.00
69153;BME280;56261;51.580;4.578;2024-01-30T06:31:04;102586.75;;;9.59;100.00
69153;BME280;56261;51.580;4.578;2024-01-30T06:33:30;102592.31;;;9.56;100.00
69153;BME280;56261;51.580;4.578;2024-01-30T06:35:55;102596.56;;;9.59;100.00
69153;BME280;56261;51.580;4.578;2024-01-30T06:38:20;102594.00;;;9.68;100.00
69153;BME280;56261;51.580;4.578;2024-01-30T06:40:46;102592.53;;;9.75;100.00
69153;BME280;56261;51.580;4.578;2024-01-30T06:43:11;102591.59;;;9.88;100.00
69153;BME280;56261;51.580;4.578;2024-01-30T06:45:37;102602.72;;;9.93;100.00
69153;BME280;56261;51.580;4.578;2024-01-30T06:48:02;102605.75;;;9.88;100.00
69153;BME280;56261;51.580;4.578;2024-01-30T06:50:28;102607.94;;;9.94;100.00
69153;BME280;56261;51.580;4.578;2024-01-30T06:52:53;102607.94;;;10.06;100.00
69153;BME280;56261;51.580;4.578;2024-01-30T06:55:19;102602.97;;;10.01;100.00
69153;BME280;56261;51.580;4.578;2024-01-30T06:57:44;102602.69;;;10.15;100.00
69153;BME280;56261;51.580;4.578;2024-01-30T07:00:10;102608.66;;;10.08;100.00
69153;BME280;56261;51.580;4.578;2024-01-30T07:02:35;102608.91;;;10.16;100.00
69153;BME280;56261;51.580;4.578;2024-01-30T07:05:01;102618.97;;;10.12;100.00
69153;BME280;56261;51.580;4.578;2024-01-30T07:07:27;102615.91;;;10.17;100.00
69153;BME280;56261;51.580;4.578;2024-01-30T07:09:54;102611.66;;;10.26;100.00
69153;BME280;56261;51.580;4.578;2024-01-30T07:12:24;102615.34;;;10.36;100.00
69153;BME280;56261;51.580;4.578;2024-01-30T07:14:51;102612.66;;;10.36;100.00
69153;BME280;56261;51.580;4.578;2024-01-30T07:17:17;102618.47;;;10.30;100.00
69153;BME280;56261;51.580;4.578;2024-01-30T07:19:42;102619.19;;;10.43;100.00
69153;BME280;56261;51.580;4.578;2024-01-30T07:22:08;102617.75;;;10.39;100.00
69153;BME280;56261;51.580;4.578;2024-01-30T07:24:33;102630.56;;;10.56;100.00
69153;BME280;56261;51.580;4.578;2024-01-30T07:26:59;102625.84;;;10.37;100.00
69153;BME280;56261;51.580;4.578;2024-01-30T07:29:24;102627.41;;;10.51;100.00
69153;BME280;56261;51.580;4.578;2024-01-30T07:31:50;102644.28;;;10.52;100.00
69153;BME280;56261;51.580;4.578;2024-01-30T07:34:15;102637.91;;;10.64;100.00
69153;BME280;56261;51.580;4.578;2024-01-30T07:36:40;102635.38;;;10.63;100.00
69153;BME280;56261;51.580;4.578;2024-01-30T07:39:06;102631.84;;;10.62;100.00
69153;BME280;56261;51.580;4.578;2024-01-30T07:41:31;102634.53;;;10.62;100.00
69153;BME280;56261;51.580;4.578;2024-01-30T07:43:57;102633.34;;;10.55;100.00
69153;BME280;56261;51.580;4.578;2024-01-30T07:46:22;102624.91;;;10.71;100.00
69153;BME280;56261;51.580;4.578;2024-01-30T07:48:48;102627.97;;;10.66;100.00
69153;BME280;56261;51.580;4.578;2024-01-30T07:51:13;102632.69;;;10.63;100.00
69153;BME280;56261;51.580;4.578;2024-01-30T07:53:39;102631.03;;;10.62;100.00
69153;BME280;56261;51.580;4.578;2024-01-30T07:56:05;102626.28;;;10.65;100.00
69153;BME280;56261;51.580;4.578;2024-01-30T07:58:31;102628.19;;;10.74;100.00
69153;BME280;56261;51.580;4.578;2024-01-30T08:00:56;102637.38;;;10.82;100.00
69153;BME280;56261;51.580;4.578;2024-01-30T08:03:23;102638.53;;;10.68;100.00
69153;BME280;56261;51.580;4.578;2024-01-30T08:05:49;102642.47;;;10.85;100.00
69153;BME280;56261;51.580;4.578;2024-01-30T08:08:14;102633.03;;;10.69;100.00
69153;BME280;56261;51.580;4.578;2024-01-30T08:10:40;102634.97;;;10.78;100.00
69153;BME280;56261;51.580;4.578;2024-01-30T08:13:05;102638.69;;;10.87;100.00
69153;BME280;56261;51.580;4.578;2024-01-30T08:15:31;102647.69;;;10.86;100.00
69153;BME280;56261;51.580;4.578;2024-01-30T08:17:56;102648.06;;;10.82;100.00
69153;BME280;56261;51.580;4.578;2024-01-30T08:20:24;102651.06;;;10.88;100.00
69153;BME280;56261;51.580;4.578;2024-01-30T08:22:49;102648.84;;;10.93;100.00
69153;BME280;56261;51.580;4.578;2024-01-30T08:25:15;102661.75;;;10.88;100.00
69153;BME280;56261;51.580;4.578;2024-01-30T08:27:40;102659.34;;;10.85;100.00
69153;BME280;56261;51.580;4.578;2024-01-30T08:30:07;102661.78;;;10.77;100.00
69153;BME280;56261;51.580;4.578;2024-01-30T08:32:32;102657.38;;;10.87;100.00
69153;BME280;56261;51.580;4.578;2024-01-30T08:34:58;102658.13;;;10.78;100.00
69153;BME280;56261;51.580;4.578;2024-01-30T08:37:24;102661.31;;;10.72;100.00
69153;BME280;56261;51.580;4.578;2024-01-30T08:39:49;102663.00;;;10.73;100.00
69153;BME280;56261;51.580;4.578;2024-01-30T08:42:14;102671.81;;;10.85;100.00
69153;BME280;56261;51.580;4.578;2024-01-30T08:44:41;102670.97;;;10.84;100.00
69153;BME280;56261;51.580;4.578;2024-01-30T08:47:06;102661.47;;;10.91;100.00
69153;BME280;56261;51.580;4.578;2024-01-30T08:49:31;102654.81;;;10.97;100.00
69153;BME280;56261;51.580;4.578;2024-01-30T08:51:57;102658.63;;;10.83;100.00
69153;BME280;56261;51.580;4.578;2024-01-30T08:54:23;102659.91;;;10.89;100.00
69153;BME280;56261;51.580;4.578;2024-01-30T08:56:49;102660.38;;;10.94;100.00
69153;BME280;56261;51.580;4.578;2024-01-30T08:59:14;102665.25;;;10.89;100.00
69153;BME280;56261;51.580;4.578;2024-01-30T09:01:40;102674.88;;;10.80;100.00
69153;BME280;56261;51.580;4.578;2024-01-30T09:04:05;102664.91;;;10.82;100.00
69153;BME280;56261;51.580;4.578;2024-01-30T09:06:30;102669.09;;;10.96;100.00
69153;BME280;56261;51.580;4.578;2024-01-30T09:08:56;102676.19;;;10.86;100.00
69153;BME280;56261;51.580;4.578;2024-01-30T09:11:23;102680.06;;;10.93;100.00
69153;BME280;56261;51.580;4.578;2024-01-30T09:13:48;102676.50;;;11.04;100.00
69153;BME280;56261;51.580;4.578;2024-01-30T09:16:14;102687.25;;;11.13;100.00
69153;BME280;56261;51.580;4.578;2024-01-30T09:18:41;102690.81;;;11.02;100.00
69153;BME280;56261;51.580;4.578;2024-01-30T09:21:06;102690.56;;;11.06;100.00
69153;BME280;56261;51.580;4.578;2024-01-30T09:23:32;102690.25;;;10.99;100.00
69153;BME280;56261;51.580;4.578;2024-01-30T09:25:57;102695.53;;;11.10;100.00
69153;BME280;56261;51.580;4.578;2024-01-30T09:28:23;102704.88;;;11.05;100.00
69153;BME280;56261;51.580;4.578;2024-01-30T09:30:48;102698.09;;;11.00;100.00
69153;BME280;56261;51.580;4.578;2024-01-30T09:33:13;102704.44;;;10.99;100.00
69153;BME280;56261;51.580;4.578;2024-01-30T09:35:39;102696.75;;;11.06;100.00
69153;BME280;56261;51.580;4.578;2024-01-30T09:38:04;102705.38;;;11.10;100.00
69153;BME280;56261;51.580;4.578;2024-01-30T09:40:30;102700.28;;;11.07;100.00
69153;BME280;56261;51.580;4.578;2024-01-30T09:42:55;102701.84;;;11.09;100.00
69153;BME280;56261;51.580;4.578;2024-01-30T09:45:25;102712.84;;;11.16;100.00
69153;BME280;56261;51.580;4.578;2024-01-30T09:47:51;102727.19;;;11.15;100.00
69153;BME280;56261;51.580;4.578;2024-01-30T09:50:18;102728.31;;;11.12;100.00
69153;BME280;56261;51.580;4.578;2024-01-30T09:52:44;102712.50;;;11.09;100.00
69153;BME280;56261;51.580;4.578;2024-01-30T09:55:10;102724.69;;;11.02;100.00
69153;BME280;56261;51.580;4.578;2024-01-30T09:57:36;102723.97;;;11.00;100.00
69153;BME280;56261;51.580;4.578;2024-01-30T10:00:05;102725.06;;;10.97;100.00
69153;BME280;56261;51.580;4.578;2024-01-30T10:02:34;102713.50;;;11.08;100.00
69153;BME280;56261;51.580;4.578;2024-01-30T10:05:00;102718.47;;;11.13;100.00
69153;BME280;56261;51.580;4.578;2024-01-30T10:07:26;102722.69;;;11.15;100.00
69153;BME280;56261;51.580;4.578;2024-01-30T10:09:53;102733.84;;;11.20;100.00
69153;BME280;56261;51.580;4.578;2024-01-30T10:12:18;102727.28;;;11.25;100.00
69153;BME280;56261;51.580;4.578;2024-01-30T10:14:44;102736.50;;;11.20;100.00
69153;BME280;56261;51.580;4.578;2024-01-30T10:17:10;102726.94;;;11.18;100.00
69153;BME280;56261;51.580;4.578;2024-01-30T10:19:40;102738.69;;;11.27;100.00
69153;BME280;56261;51.580;4.578;2024-01-30T10:22:05;102748.25;;;11.29;100.00
69153;BME280;56261;51.580;4.578;2024-01-30T10:24:33;102745.59;;;11.29;100.00
69153;BME280;56261;51.580;4.578;2024-01-30T10:26:58;102743.19;;;11.26;100.00
69153;BME280;56261;51.580;4.578;2024-01-30T10:29:24;102749.47;;;11.25;100.00
69153;BME280;56261;51.580;4.578;2024-01-30T10:32:03;102750.25;;;11.16;100.00
69153;BME280;56261;51.580;4.578;2024-01-30T10:34:29;102771.13;;;11.22;100.00
69153;BME280;56261;51.580;4.578;2024-01-30T10:37:15;102753.66;;;11.07;100.00
69153;BME280;56261;51.580;4.578;2024-01-30T10:39:42;102764.97;;;11.10;100.00
69153;BME280;56261;51.580;4.578;2024-01-30T10:42:17;102779.31;;;10.98;100.00
69153;BME280;56261;51.580;4.578;2024-01-30T10:47:27;102777.25;;;11.01;100.00
69153;BME280;56261;51.580;4.578;2024-01-30T10:49:54;102775.44;;;10.91;100.00
69153;BME280;56261;51.580;4.578;2024-01-30T10:52:21;102779.44;;;10.96;100.00
69153;BME280;56261;51.580;4.578;2024-01-30T10:54:48;102784.81;;;10.85;100.00
69153;BME280;56261;51.580;4.578;2024-01-30T10:57:15;102784.81;;;10.85;100.00
69153;BME280;56261;51.580;4.578;2024-01-30T10:59:41;102780.91;;;10.67;100.00
69153;BME280;56261;51.580;4.578;2024-01-30T11:02:09;102796.22;;;10.53;100.00
69153;BME280;56261;51.580;4.578;2024-01-30T11:04:39;102797.53;;;10.36;100.00
69153;BME280;56261;51.580;4.578;2024-01-30T11:07:23;102809.06;;;10.02;100.00
69153;BME280;56261;51.580;4.578;2024-01-30T11:09:52;102795.47;;;9.93;100.00
69153;BME280;56261;51.580;4.578;2024-01-30T11:12:22;102806.28;;;9.92;100.00
69153;BME280;56261;51.580;4.578;2024-01-30T11:14:49;102805.66;;;9.88;100.00
69153;BME280;56261;51.580;4.578;2024-01-30T11:17:14;102806.03;;;9.95;100.00
69153;BME280;56261;51.580;4.578;2024-01-30T11:19:41;102797.91;;;9.85;100.00
69153;BME280;56261;51.580;4.578;2024-01-30T11:22:07;102802.41;;;9.96;100.00
69153;BME280;56261;51.580;4.578;2024-01-30T11:24:41;102802.78;;;9.91;100.00
69153;BME280;56261;51.580;4.578;2024-01-30T11:27:10;102808.56;;;9.85;100.00
69153;BME280;56261;51.580;4.578;2024-01-30T11:29:35;102794.16;;;9.88;100.00
69153;BME280;56261;51.580;4.578;2024-01-30T11:32:01;102807.81;;;9.83;100.00
69153;BME280;56261;51.580;4.578;2024-01-30T11:34:27;102807.38;;;9.89;100.00
69153;BME280;56261;51.580;4.578;2024-01-30T11:36:58;102810.03;;;9.89;100.00
69153;BME280;56261;51.580;4.578;2024-01-30T11:39:27;102823.75;;;9.96;100.00
69153;BME280;56261;51.580;4.578;2024-01-30T11:41:53;102835.25;;;9.96;100.00
69153;BME280;56261;51.580;4.578;2024-01-30T11:44:22;102833.03;;;9.90;100.00
69153;BME280;56261;51.580;4.578;2024-01-30T11:46:48;102828.56;;;9.91;100.00
69153;BME280;56261;51.580;4.578;2024-01-30T11:49:14;102828.91;;;9.86;100.00
69153;BME280;56261;51.580;4.578;2024-01-30T11:51:40;102818.63;;;9.93;100.00
69153;BME280;56261;51.580;4.578;2024-01-30T11:54:05;102823.72;;;9.85;100.00
69153;BME280;56261;51.580;4.578;2024-01-30T11:56:30;102824.25;;;9.77;100.00
69153;BME280;56261;51.580;4.578;2024-01-30T11:58:56;102812.28;;;9.71;100.00
69153;BME280;56261;51.580;4.578;2024-01-30T12:01:21;102828.16;;;9.84;100.00
69153;BME280;56261;51.580;4.578;2024-01-30T12:03:50;102828.03;;;9.74;100.00
69153;BME280;56261;51.580;4.578;2024-01-30T12:06:16;102825.09;;;9.77;100.00
69153;BME280;56261;51.580;4.578;2024-01-30T12:08:41;102835.03;;;9.75;100.00
69153;BME280;56261;51.580;4.578;2024-01-30T12:11:07;102832.94;;;9.68;100.00
69153;BME280;56261;51.580;4.578;2024-01-30T12:13:33;102832.72;;;9.71;100.00
69153;BME280;56261;51.580;4.578;2024-01-30T12:15:59;102833.06;;;9.66;100.00
69153;BME280;56261;51.580;4.578;2024-01-30T12:18:24;102847.47;;;9.64;100.00
69153;BME280;56261;51.580;4.578;2024-01-30T12:20:57;102847.19;;;9.55;100.00
69153;BME280;56261;51.580;4.578;2024-01-30T12:23:24;102846.91;;;9.47;100.00
69153;BME280;56261;51.580;4.578;2024-01-30T12:25:51;102857.44;;;9.25;100.00
69153;BME280;56261;51.580;4.578;2024-01-30T12:28:17;102862.69;;;9.01;100.00
69153;BME280;56261;51.580;4.578;2024-01-30T12:30:42;102877.28;;;8.95;100.00
69153;BME280;56261;51.580;4.578;2024-01-30T12:33:08;102875.50;;;8.96;100.00
69153;BME280;56261;51.580;4.578;2024-01-30T12:35:35;102861.63;;;8.90;100.00
69153;BME280;56261;51.580;4.578;2024-01-30T12:38:01;102865.94;;;8.80;100.00
69153;BME280;56261;51.580;4.578;2024-01-30T12:40:27;102878.06;;;8.84;100.00
69153;BME280;56261;51.580;4.578;2024-01-30T12:42:52;102890.28;;;8.87;100.00
69153;BME280;56261;51.580;4.578;2024-01-30T12:45:18;102884.00;;;8.88;100.00